Daniel López

Olheiro - Granada
9 Dez 2027
Quinta-feira
Processo

Personalidade

Adaptabilidade (1) Ambição (13) Controvérsia (15) Lealdade (18) Pressão (6) Profissionalismo (14) Espírito Esportivo (2) Temperamento (1)

Perfil

Estilo de Treinamento Democrático
Licença Continental Pro
Determinação 11
Gestão de Pessoas 7
Motivação 11
Disciplina 4
Satisfação no Trabalho
100%
Fadiga
0%
Função Olheiro
Salário 81.2K p/s
Contrato 14.03.2028

Desempenho

Comportamento Bom
Eficácia do Treinamento
39%
Desenvolvimento do Jogador
45%
Prevenção de Lesões
55%
Implementação Tática
30%

Eventos Recentes

Avaliou um jogador agora
Participou de uma reunião de recrutamento agora
Recomendou um alvo de transferência agora
Recomendou um alvo de transferência 7d atrás
Recomendou um alvo de transferência 7d atrás
Observou uma partida 7d atrás
Observou uma partida 7d atrás
Avaliou um jogador 7d atrás

Monitorando agora

200
Jogador Clube Status Habilidade Confiança Observado Última observação Último voto
Dilan Godoy Vélez Ativo 105 / 124 40% 2 07.12.2027 -
Rio Ngumoha Stockport County Ativo 132 / 139 40% 1 07.12.2027 -
Santiago López Independiente Ativo 125 / 124 40% 1 07.12.2027 -
Lucas Camejo River Plate Ativo 81 / 79 40% 5 06.12.2027 -
Gustavo Lozano Metropolitanos Ativo 104 / 92 40% 2 06.12.2027 -
Dylan Cabral Arsenal Ativo 93 / 114 40% 1 06.12.2027 -
Juan Camilo Córdoba Deportivo Pereira Ativo 93 / 104 40% 1 05.12.2027 -
Axel Tape Bayer Leverkusen Ativo 129 / 127 40% 3 29.11.2027 -
Oscar Otero Atletico Venezuela Ativo 98 / 94 40% 3 29.11.2027 -
David Valencia Alianza Petrolera Ativo 137 / 131 40% 2 28.11.2027 -
Mateo Peralta Danubio Ativo 118 / 118 40% 3 28.11.2027 -
Felipe Obradovich Ferro Carril Oeste Ativo 109 / 128 40% 1 28.11.2027 -
Bryan Caicedo Leones Ativo 105 / 119 40% 2 27.11.2027 -
Alfie James Ventforet Kofu Ativo 96 / 86 40% 3 27.11.2027 -
Franco Minerva Platense Ativo 113 / 133 40% 2 26.11.2027 -
Lion Beqiri Falkenberg Ativo 100 / 105 40% 2 26.11.2027 -
Tiziano Cabrera Central Norte Ativo 91 / 104 40% 3 26.11.2027 -
Samuel Posada Leones Ativo 76 / 105 40% 2 25.11.2027 -
Cristian Florez Cortulua Ativo 111 / 103 40% 2 25.11.2027 -
Wilfred Correa Caracas Ativo 86 / 114 40% 1 25.11.2027 -
Sebastián Ramírez Jaguares Ativo 117 / 103 40% 5 23.11.2027 -
Brandon Álvarez Penarol Ativo 96 / 92 40% 4 23.11.2027 -
Hervin Goyes Deportivo Pasto Ativo 110 / 101 40% 4 22.11.2027 -
Tomás Aranda Boca Juniors Ativo 121 / 106 40% 5 22.11.2027 -
Diogo Guzmán Montevideo City Torque Ativo 120 / 115 40% 8 22.11.2027 -
Lisandro Piñero Vélez Ativo 121 / 135 40% 3 19.11.2027 -
Joel Ezra Enyimba Ativo 89 / 110 40% 3 16.11.2027 -
Giovanni Cantizano Rosario Central Ativo 104 / 122 40% 1 16.11.2027 -
Luca Williams-Barnett Tranmere Rovers Ativo 114 / 136 40% 1 16.11.2027 -
Emiliano Zambrano Gimnasia y Esgrima Ativo 88 / 105 40% 2 11.11.2027 -
Musa Malik Ikorodu City Ativo 89 / 96 40% 3 09.11.2027 -
Francisco Triver River Plate Ativo 89 / 108 40% 1 09.11.2027 -
Joaquín Muñoz O'Higgins Ativo 82 / 96 40% 1 08.11.2027 -
Luca Regiardo Newell's Old Boys Ativo 110 / 95 40% 1 08.11.2027 -
Mateo Silvetti Los Angeles Football Club Ativo 138 / 119 40% 4 05.11.2027 -
Hassan Beja AFC Leopards Ativo 83 / 105 40% 2 05.11.2027 -
Ramiro Jara Racing Ativo 94 / 82 40% 1 05.11.2027 -
Joel Medina Independiente Ativo 109 / 112 40% 1 04.11.2027 -
Tiago Gordillo San Miguel Ativo 78 / 104 40% 1 02.11.2027 -
Ben Gannon Doak Bournemouth Ativo 145 / 153 40% 1 20.10.2027 -
Mustapha Umar Kano Pillars Ativo 86 / 83 40% 1 17.10.2027 -
Santino Carrizo Chacarita Juniors Ativo 93 / 98 40% 1 15.10.2027 -
Lucas Duré Montevideo City Torque Ativo 97 / 96 40% 2 14.10.2027 -
Luis Otávio Colorado Rapids Ativo 121 / 125 40% 1 29.09.2027 -
Tyson Pearce St. Louis CITY SC Ativo 97 / 106 40% 1 29.09.2027 -
Caleb Yirenkyi Coventry City Ativo 146 / 145 40% 5 26.09.2027 -
Juan Morán Godoy Cruz Ativo 106 / 125 40% 1 26.09.2027 -
Daniel Gomez Valledupar Ativo 82 / 90 40% 1 26.09.2027 -
Jhon Cortez Barranquilla Ativo 75 / 79 40% 3 25.09.2027 -
Ángel Aguayo Sol de America Ativo 88 / 98 40% 1 23.09.2027 -
Olaniyi Saheed Kwara United Ativo 102 / 94 40% 1 23.09.2027 -
Hosea Michael Remo Stars Ativo 96 / 92 40% 2 22.09.2027 -
Agustín Obregón River Plate Ativo 117 / 133 40% 2 21.09.2027 -
Eliás Montiel Werder Bremen Ativo 126 / 141 40% 1 21.09.2027 -
Thiago Helguera Braga Ativo 128 / 124 40% 1 21.09.2027 -
Juan Diego Perdomo Depor Ativo 91 / 93 40% 3 20.09.2027 -
Germán Barbas Penarol Ativo 103 / 101 40% 1 20.09.2027 -
Esteban de Lima Tacuarembo Ativo 89 / 94 40% 1 18.09.2027 -
Zahir Ibarra Defensa y Justicia Ativo 105 / 114 40% 1 16.09.2027 -
Emiliano Bértoli Patronato Ativo 86 / 103 40% 1 15.09.2027 -
Harbor Miller LA Galaxy Ativo 86 / 109 40% 1 15.09.2027 -
José Correa Deportivo Tachira Ativo 99 / 108 40% 1 14.09.2027 -
Mohamed Bolivar Barranquilla Ativo 86 / 108 40% 1 14.09.2027 -
Juan Cruz Cortazzo Gimnasia La Plata Ativo 101 / 109 40% 1 14.09.2027 -
Teo Rodríguez Pagano River Plate Ativo 124 / 128 40% 2 13.09.2027 -
David Damboama El-Kanemi Warriors Ativo 86 / 83 40% 1 13.09.2027 -
Álvaro Navoni Tigre Ativo 100 / 110 40% 1 13.09.2027 -
Gabriel Moscardo Paris Saint-Germain Ativo 125 / 139 40% 1 10.09.2027 -
Pablo Aguiar Independiente Ativo 103 / 121 40% 1 10.09.2027 -
Agustín Campos All Boys Ativo 97 / 79 40% 1 09.09.2027 -
Mads Bomholt Stabaek Ativo 100 / 113 40% 1 08.09.2027 -
Vitor Reis Manchester City Ativo 131 / 145 40% 1 23.08.2027 -
Joel McGregor Swindon Town Ativo 93 / 103 40% 3 05.07.2027 -
Josh King Chelsea Ativo 138 / 155 40% 3 05.07.2027 -
Zane Albarus Cambridge United Ativo 88 / 101 40% 2 05.07.2027 -
Aníbal Chalá Barcelona Relatório pronto 114 / 118 65% 1 05.07.2027 -
Lewis Miley Chelsea Ativo 144 / 152 40% 1 28.06.2027 -
Gonçalo Oliveira Benfica Ativo 112 / 120 40% 1 28.06.2027 -
Warren Zaïre-Emery Paris Saint-Germain Ativo 154 / 154 40% 4 21.06.2027 -
Daniel Kelly Oxford United Ativo 107 / 111 40% 2 21.06.2027 -
Will Lankshear Middlesbrough Ativo 122 / 130 40% 1 14.06.2027 -
Mohamed Salah Trabzonspor Perdido 186 / 188 40% 1 14.06.2027 -
Zian Flemming Ipswich Town Ativo 139 / 138 40% 1 14.06.2027 -
Sascha Britschgi Padova Ativo 123 / 132 40% 2 10.06.2027 -
Leonardo Mendicino Bari Ativo 120 / 127 40% 1 10.06.2027 -
Luiz Henrique West Ham United Ativo 142 / 143 91% 1 01.06.2027 Aprovar
Facundo Torres LOSC Lille Relatório pronto 134 / 134 67% 1 01.06.2027 -
Konstantin Tyukavin Inter Ativo 132 / 133 66% 1 01.06.2027 Aprovar
Martin Cedidla Spartak Moscow Relatório pronto 131 / 132 66% 1 01.06.2027 -
Roberto Alvarado Monaco Relatório pronto 139 / 139 66% 1 01.06.2027 -
Johan Manzambi Newcastle United Ativo 137 / 138 40% 2 30.05.2027 -
Jon Garro Real Sociedad Ativo 84 / 86 40% 3 28.05.2027 -
Ibrahim Maza Bayer Leverkusen Ativo 145 / 154 40% 4 27.05.2027 -
Kevin Vazquez Cruz Azul Ativo 147 / 129 40% 4 26.05.2027 -
Christ Inao Oulaï Fiorentina Ativo 141 / 142 40% 2 26.05.2027 -
Davide Bartesaghi AC Milan Ativo 136 / 140 40% 4 24.05.2027 -
Jofre Torrents Ajax Ativo 116 / 132 40% 2 24.05.2027 -
Finley McAllister Grimsby Town Ativo 93 / 91 40% 2 22.05.2027 -
Bernardo Lima Porto Ativo 93 / 114 40% 1 22.05.2027 -
Kazunari Kita Real Sociedad Ativo 91 / 108 40% 3 21.05.2027 -
Dylan Lawlor Cardiff City Ativo 107 / 130 40% 3 18.05.2027 -
Toni Tamarit Alverca Ativo 119 / 126 40% 1 18.05.2027 -
Finn Jeltsch VfB Stuttgart Ativo 143 / 146 40% 2 17.05.2027 -
Simone Kosijer Triestina Ativo 103 / 93 40% 1 17.05.2027 -
João Teixeira Porto Ativo 111 / 123 40% 3 16.05.2027 -
Yussif Saidu Zaragoza Ativo 117 / 132 40% 2 16.05.2027 -
Ricky Atletico Venezuela Ativo 90 / 92 40% 1 16.05.2027 -
Jan Bürger Gillingham Ativo 106 / 124 40% 2 14.05.2027 -
Adam Bakoune Ospitaletto Ativo 98 / 102 40% 1 11.05.2027 -
Noah Nartey Olympique Lyonnais Ativo 136 / 138 40% 1 11.05.2027 -
Josh Smith Accrington Stanley Ativo 79 / 88 40% 1 11.05.2027 -
Ernie Weaver AFC Wimbledon Ativo 103 / 107 40% 2 09.05.2027 -
Fuzy Taylor Medeama Ativo 83 / 81 40% 3 08.05.2027 -
Izan Merino Málaga Ativo 117 / 128 40% 1 08.05.2027 -
Christos Mouzakitis Hull City Ativo 132 / 139 40% 2 04.05.2027 -
Louis Leroux FC Nantes Ativo 130 / 137 40% 1 17.04.2027 -
Darryl Bakola Padova Ativo 108 / 124 40% 1 15.04.2027 -
Martim Cunha Porto Ativo 102 / 110 40% 1 15.04.2027 -
Rivaldo Grobler Free State Stars Ativo 108 / 120 40% 1 14.04.2027 -
Yusi Alavés Ativo 123 / 134 40% 1 12.04.2027 -
Keagan Phiri Platinum Stars Ativo 87 / 89 40% 2 09.04.2027 -
James Dornelly Peterborough United Ativo 96 / 107 40% 1 06.04.2027 -
José Pachuca Puebla Ativo 99 / 120 40% 1 06.04.2027 -
Riley Owen Trento Ativo 107 / 99 40% 1 06.04.2027 -
Adam Wharton Crystal Palace Ativo 147 / 152 40% 2 31.12.2026 -
Óscar Mingueza Crystal Palace Ativo 147 / 141 40% 1 31.12.2026 -
Harry Clarke Preston Ativo 128 / 120 40% 1 31.12.2026 -
Diego Lainez Tigres Ativo 138 / 131 40% 6 27.12.2026 -
Omar Campos Cruz Azul Ativo 139 / 137 40% 6 26.12.2026 -
Jesús Orozco Chiquete Cruz Azul Ativo 139 / 119 40% 3 26.12.2026 -
Erick Sánchez OGC Nice Ativo 135 / 136 40% 5 24.12.2026 -
Tani Oluwaseyi Villarreal Ativo 138 / 134 40% 2 24.12.2026 -
Dango Ouattara Brentford Ativo 146 / 136 40% 1 24.12.2026 -
Reda Khadra Qarabag Ativo 128 / 129 40% 2 23.12.2026 -
Ez Abde Girona Ativo 151 / 150 40% 1 23.12.2026 -
Fidel Ambríz Monterrey Ativo 119 / 144 40% 3 22.12.2026 -
Aarón Mejía Tijuana Ativo 124 / 128 40% 2 21.12.2026 -
Tyler Adams Bournemouth Ativo 153 / 146 40% 1 21.12.2026 -
Yeremy Pino Crystal Palace Ativo 154 / 145 40% 1 18.12.2026 -
Nicolás Castro Toluca Ativo 131 / 122 40% 2 17.12.2026 -
Ramiro Sordo Santos Laguna Ativo 136 / 116 40% 1 17.12.2026 -
Brian Gutiérrez Guadalajara Ativo 134 / 128 40% 5 16.12.2026 -
Andrés Martín Racing Santander Ativo 134 / 131 40% 1 15.12.2026 -
Pol Lozano Espanyol Ativo 138 / 147 40% 3 14.12.2026 -
Víctor Guzmán Monterrey Ativo 123 / 127 40% 1 13.12.2026 -
Félix Lemaréchal Club Brugge Ativo 139 / 127 40% 1 08.12.2026 -
Tom Fellows Southampton Ativo 130 / 121 40% 1 08.12.2026 -
Ezequiel Bullaude Santos Laguna Ativo 135 / 136 40% 5 07.12.2026 -
Pedro Vite Pumas UNAM Ativo 131 / 112 40% 3 07.12.2026 -
Jonathan Dubasin Osasuna Ativo 134 / 144 40% 1 07.12.2026 -
Augusto Schott Talleres Ativo 118 / 113 40% 1 06.12.2026 -
Tshepang Moremi Orlando Pirates Ativo 123 / 123 40% 1 04.12.2026 -
Brahim Díaz Real Madrid Ativo 155 / 149 40% 1 04.12.2026 -
Hugo Álvarez Celta Ativo 139 / 133 40% 2 03.12.2026 -
Brian Rodríguez Club America Ativo 140 / 123 40% 4 02.12.2026 -
Aarón Molinas Defensa y Justicia Ativo 129 / 125 40% 3 30.11.2026 -
Kevin Fulham Ativo 152 / 150 40% 1 29.11.2026 -
Aimar Osasuna Ativo 153 / 152 40% 1 29.11.2026 -
Joaquim Tigres Ativo 122 / 119 40% 3 27.11.2026 -
Israel Reyes CSKA Moscow Ativo 139 / 136 40% 2 27.11.2026 -
Eduardo Dos Santos Veracruz Ativo 122 / 129 40% 1 25.11.2026 -
Joaquín Gho Argentinos Juniors Ativo 134 / 117 40% 4 24.11.2026 -
Eric Meza Estudiantes Ativo 113 / 123 40% 2 23.11.2026 -
Rodrigo Herrera Newell's Old Boys Ativo 126 / 127 40% 2 23.11.2026 -
Marcel Ruiz RC Lens Ativo 135 / 133 40% 2 22.11.2026 -
Carlos Vicente Birmingham Ativo 152 / 135 40% 3 19.11.2026 -
Alan Lescano Argentinos Juniors Ativo 135 / 127 40% 4 19.11.2026 -
Manuel Ospina Cortulua Ativo 114 / 120 40% 2 19.11.2026 -
Gavi Barcelona Ativo 163 / 167 40% 3 18.11.2026 -
Leandro Lozano Boca Juniors Ativo 121 / 134 40% 1 18.11.2026 -
Siro Rosané Estudiantes Ativo 128 / 108 40% 2 16.11.2026 -
Jan Carlos Ángulo Deportes Tolima Ativo 129 / 122 40% 1 16.11.2026 -
Adrià Altimira Deportivo La Coruña Ativo 137 / 123 40% 1 15.11.2026 -
Sebastián Santos Leon Ativo 108 / 111 40% 1 14.11.2026 -
Adrien Truffert Bournemouth Ativo 142 / 146 40% 1 13.11.2026 -
Ramón Juárez Club America Ativo 129 / 146 40% 1 13.11.2026 -
Iker Benito Queretaro Ativo 134 / 137 40% 4 09.11.2026 -
Ozziel Herrera Tigres Ativo 124 / 123 40% 1 08.11.2026 -
Felipe Peña Biafore Lanús Ativo 126 / 127 40% 1 08.11.2026 -
Nazareno Colombo Racing Club Ativo 128 / 134 40% 1 07.11.2026 -
Ramiro Ruiz Rodríguez Atlético Tucumán Ativo 124 / 122 40% 1 03.11.2026 -
Matías Fernández Independiente Rivadavia Ativo 111 / 118 40% 2 02.11.2026 -
Franco Zapiola Platense Ativo 124 / 115 40% 2 30.10.2026 -
Tomás O'Connor Gimnasia y Esgrima Ativo 131 / 139 40% 1 28.10.2026 -
César Ibáñez Huracán Ativo 119 / 113 40% 1 26.10.2026 -
Jaminton Campaz Rosario Central Ativo 124 / 124 40% 1 26.10.2026 -
Sebastián Medina Tigre Ativo 106 / 117 40% 1 23.10.2026 -
Tiago Palacios Estudiantes Ativo 119 / 119 40% 1 20.10.2026 -
Santiago Toloza O'Higgins Ativo 136 / 116 40% 1 12.10.2026 -
Adalberto Carrasquilla Pumas UNAM Ativo 115 / 114 40% 1 12.10.2026 -
Richard Ledezma Guadalajara Ativo 131 / 140 40% 1 01.10.2026 -
Franco Díaz Temperley Ativo 114 / 127 40% 1 30.09.2026 -
Dylan Borrero America de Cali Ativo 119 / 108 40% 1 30.09.2026 -
Tomás Adoryan Banfield Ativo 119 / 121 40% 1 29.09.2026 -
Rémi Lemoine Chamois Niortais Ativo 162 / 149 40% 1 26.09.2026 -
Junior Hernández Deportes Tolima Ativo 105 / 130 40% 1 24.09.2026 -
Jannenson Sarmiento Junior Ativo 123 / 130 40% 1 21.09.2026 -
Jeremy Márquez Cruz Azul Ativo 134 / 136 40% 1 15.09.2026 -
Ignacio Arce Deportivo Riestra Ativo 133 / 112 40% 1 01.08.2026 -
Guillermo Allison Queretaro Ativo 126 / 128 40% 1 01.08.2026 -